Time;durP1;ratioP1;P1;durP2;ratioP2;P2;SDS_P1;SDS_P2;PMS_P1;PMS_P2;Temp;Humidity;BMP_temperature;BMP_pressure;BME280_temperature;BME280_humidity;BME280_pressure;Samples;Min_cycle;Max_cycle;Signal;HPM_P1;HPM_P2
2023/09/02 00:01:30;;;;;;;28.45;27.05;;;;;;;23.65;72.37;98746.53;4952798;28;104071;-74
2023/09/02 00:03:58;;;;;;;36.72;35.03;;;;;;;22.93;76.84;98751.09;4962143;28;103146;-74
2023/09/02 00:06:26;;;;;;;33.13;31.53;;;;;;;23.42;75.48;98741.31;4962426;28;103510;-74
2023/09/02 00:08:55;;;;;;;26.13;24.90;;;;;;;24.03;72.71;98749.78;4961284;28;102910;-74
2023/09/02 00:11:24;;;;;;;18.05;17.05;;;;;;;24.46;70.09;98748.69;4960770;28;104228;-74
2023/09/02 00:13:54;;;;;;;17.63;16.83;;;;;;;25.23;67.23;98748.50;4963341;28;103833;-75
2023/09/02 00:16:22;;;;;;;31.05;29.75;;;;;;;25.54;65.54;98756.13;4960988;28;102826;-74
2023/09/02 00:18:50;;;;;;;37.97;36.27;;;;;;;25.57;63.84;98756.50;4962528;28;102990;-74
2023/09/02 00:21:17;;;;;;;50.95;48.65;;;;;;;25.56;63.46;98757.56;4964829;28;103371;-74
2023/09/02 00:23:46;;;;;;;47.08;45.03;;;;;;;24.91;65.37;98763.53;4959783;28;103282;-74
2023/09/02 00:26:15;;;;;;;38.45;36.72;;;;;;;24.75;65.38;98761.97;4953233;28;103158;-74
2023/09/02 00:28:47;;;;;;;34.50;32.83;;;;;;;23.31;72.09;98759.81;4961443;28;103060;-74
2023/09/02 00:31:15;;;;;;;39.03;37.13;;;;;;;22.47;77.37;98761.19;4962106;28;103573;-75
2023/09/02 00:33:43;;;;;;;69.28;66.13;;;;;;;22.47;78.70;98772.78;4954526;28;103168;-74
2023/09/02 00:36:11;;;;;;;59.03;56.10;;;;;;;22.81;77.68;98768.75;4959157;28;103348;-74
2023/09/02 00:38:38;;;;;;;57.28;54.60;;;;;;;23.60;74.36;98766.00;4945782;28;102823;-75
2023/09/02 00:41:10;;;;;;;33.22;31.63;;;;;;;24.04;71.32;98770.34;4959279;28;103505;-74
2023/09/02 00:43:40;;;;;;;28.00;26.53;;;;;;;24.48;69.23;98765.53;4943255;28;104805;-74
2023/09/02 00:46:10;;;;;;;26.00;24.77;;;;;;;24.82;68.29;98767.44;4945398;28;102791;-75
2023/09/02 00:48:38;;;;;;;19.58;18.50;;;;;;;24.84;67.42;98759.13;4934954;28;103321;-74
2023/09/02 00:51:05;;;;;;;22.07;20.97;;;;;;;25.02;66.81;98767.53;4957325;28;103513;-74
2023/09/02 00:53:33;;;;;;;19.75;18.75;;;;;;;25.13;65.90;98758.84;4942193;28;103269;-74
2023/09/02 00:56:02;;;;;;;21.65;20.67;;;;;;;25.42;64.87;98763.13;4957229;28;102806;-74
2023/09/02 00:58:30;;;;;;;20.52;19.52;;;;;;;25.50;64.12;98761.09;4960490;28;104066;-74
2023/09/02 01:01:00;;;;;;;28.60;27.33;;;;;;;25.60;63.37;98755.31;4960662;28;103699;-74
2023/09/02 01:03:28;;;;;;;27.13;25.83;;;;;;;24.93;64.17;98755.22;4943651;28;104518;-74
2023/09/02 01:05:57;;;;;;;23.75;22.63;;;;;;;24.77;64.08;98757.19;4962808;28;102827;-74
2023/09/02 01:08:25;;;;;;;25.88;24.70;;;;;;;24.29;66.35;98758.13;4958207;28;104072;-74
2023/09/02 01:10:53;;;;;;;30.52;28.92;;;;;;;23.47;71.08;98754.22;4960680;28;103254;-74
2023/09/02 01:13:21;;;;;;;36.93;34.93;;;;;;;23.78;70.78;98756.59;4950182;28;104074;-74
2023/09/02 01:15:50;;;;;;;31.38;29.95;;;;;;;24.05;69.08;98763.94;4962202;28;102553;-74
2023/09/02 01:18:19;;;;;;;36.72;34.90;;;;;;;23.51;71.04;98761.75;4961520;28;103367;-74
2023/09/02 01:21:02;;;;;;;32.58;30.90;;;;;;;23.68;69.51;98762.34;4962984;28;103466;-74
2023/09/02 01:23:52;;;;;;;43.83;41.92;;;;;;;24.33;69.46;98754.03;4958894;28;103203;-74
2023/09/02 01:26:30;;;;;;;41.25;39.28;;;;;;;23.90;69.87;98771.25;4960883;28;103005;-74
2023/09/02 01:29:04;;;;;;;35.58;33.95;;;;;;;24.08;68.19;98769.75;4958533;28;104297;-74
2023/09/02 01:31:33;;;;;;;36.38;34.47;;;;;;;23.87;68.58;98760.84;4960057;28;103919;-74
2023/09/02 01:34:01;;;;;;;35.10;33.45;;;;;;;23.95;68.46;98758.00;4961394;28;103310;-74
2023/09/02 01:36:30;;;;;;;43.75;41.60;;;;;;;23.61;69.87;98762.25;4952554;28;102904;-74
2023/09/02 01:38:59;;;;;;;46.38;44.38;;;;;;;24.33;68.42;98767.50;4973834;28;102977;-74
2023/09/02 01:41:29;;;;;;;42.17;40.28;;;;;;;24.45;67.70;98760.50;4957657;28;104112;-74
2023/09/02 01:44:01;;;;;;;30.02;28.73;;;;;;;24.96;66.13;98774.56;4961833;28;103227;-74
2023/09/02 01:46:28;;;;;;;40.10;38.30;;;;;;;24.30;67.32;98762.50;4962182;28;103114;-74
2023/09/02 01:48:58;;;;;;;33.38;31.98;;;;;;;24.68;66.19;98761.09;4957593;28;102926;-74
2023/09/02 01:51:26;;;;;;;34.77;33.27;;;;;;;24.99;65.20;98774.16;4960030;28;103965;-74
2023/09/02 01:53:55;;;;;;;27.37;26.00;;;;;;;25.19;64.35;98774.25;4963161;28;103678;-74
2023/09/02 01:56:23;;;;;;;34.90;33.40;;;;;;;25.22;64.06;98780.09;4945897;28;102852;-74
2023/09/02 01:58:53;;;;;;;28.73;27.53;;;;;;;25.30;63.42;98777.22;4927739;28;103047;-74
2023/09/02 02:01:23;;;;;;;31.85;30.27;;;;;;;25.38;62.66;98774.34;4934030;28;103954;-74
2023/09/02 02:03:56;;;;;;;32.20;30.60;;;;;;;25.28;62.08;98767.66;4961433;28;103674;-74
2023/09/02 02:06:24;;;;;;;34.38;32.85;;;;;;;25.31;61.99;98773.50;4960290;28;103014;-74
2023/09/02 02:08:59;;;;;;;34.47;32.97;;;;;;;25.23;61.89;98778.25;4944722;28;104526;-75
2023/09/02 02:11:31;;;;;;;43.90;42.00;;;;;;;24.19;65.89;98771.97;4957508;28;103277;-74
2023/09/02 02:14:01;;;;;;;44.72;42.65;;;;;;;23.59;69.44;98785.06;4961193;28;103641;-74
2023/09/02 02:16:31;;;;;;;60.67;57.80;;;;;;;22.67;75.00;98788.41;4939515;28;102923;-74
2023/09/02 02:19:00;;;;;;;63.88;60.83;;;;;;;22.93;73.72;98794.19;4944067;28;102844;-75
2023/09/02 02:21:29;;;;;;;70.05;66.65;;;;;;;22.64;74.77;98788.78;4940675;28;104551;-74
2023/09/02 02:23:57;;;;;;;103.10;98.33;;;;;;;23.15;74.37;98782.47;4950103;28;103185;-74
2023/09/02 02:26:25;;;;;;;104.75;99.80;;;;;;;23.46;72.22;98785.75;4958319;28;103392;-75
2023/09/02 02:28:53;;;;;;;85.47;81.75;;;;;;;24.07;70.78;98789.69;4943670;28;103803;-74
2023/09/02 02:31:21;;;;;;;63.22;60.50;;;;;;;23.51;69.46;98787.88;4960331;28;104890;-74
2023/09/02 02:33:51;;;;;;;72.13;68.80;;;;;;;23.55;71.12;98787.28;4963940;28;103276;-74
2023/09/02 02:36:19;;;;;;;79.80;76.20;;;;;;;23.10;73.92;98791.09;4943741;28;103051;-74
2023/09/02 02:38:47;;;;;;;102.07;97.57;;;;;;;22.32;78.25;98800.69;4961193;28;103112;-74
2023/09/02 02:41:15;;;;;;;112.28;107.38;;;;;;;23.38;73.28;98796.63;4942741;28;103385;-74
2023/09/02 02:43:42;;;;;;;96.50;92.25;;;;;;;23.84;70.58;98799.00;4960136;28;103232;-74
2023/09/02 02:46:10;;;;;;;71.93;68.75;;;;;;;24.13;69.66;98788.94;4958305;28;103481;-75
2023/09/02 02:48:38;;;;;;;59.17;56.65;;;;;;;23.99;68.36;98791.69;4930548;28;104139;-74
2023/09/02 02:51:07;;;;;;;55.78;53.20;;;;;;;24.35;67.77;98787.03;4940682;28;103378;-74
2023/09/02 02:53:36;;;;;;;47.78;45.67;;;;;;;24.52;66.88;98791.13;4942618;28;103041;-74
2023/09/02 02:56:05;;;;;;;119.65;115.05;;;;;;;24.78;65.57;98788.59;4957782;28;103050;-74
2023/09/02 02:58:33;;;;;;;107.23;103.03;;;;;;;24.73;65.22;98785.63;4943454;28;104502;-74
2023/09/02 03:01:04;;;;;;;69.22;66.32;;;;;;;24.36;67.40;98794.13;4960530;28;103223;-74
2023/09/02 03:03:33;;;;;;;53.38;51.08;;;;;;;23.24;72.35;98786.72;4944551;28;103786;-74
2023/09/02 03:06:04;;;;;;;76.13;73.00;;;;;;;23.17;74.27;98788.47;4960839;28;103121;-74
2023/09/02 03:08:34;;;;;;;54.63;52.33;;;;;;;24.11;70.61;98795.56;4963114;28;102691;-74
2023/09/02 03:11:04;;;;;;;57.55;55.00;;;;;;;24.15;69.97;98800.38;4936144;28;104621;-74
2023/09/02 03:13:34;;;;;;;34.65;33.10;;;;;;;24.17;68.74;98800.16;4962284;28;103484;-74
2023/09/02 03:16:10;;;;;;;35.63;34.03;;;;;;;24.43;67.96;98795.00;4947090;28;102768;-75
2023/09/02 03:18:40;;;;;;;37.78;36.13;;;;;;;24.46;67.42;98802.69;4944692;28;103212;-74
2023/09/02 03:21:09;;;;;;;38.50;36.90;;;;;;;24.59;66.67;98802.78;4962112;28;104707;-75
2023/09/02 03:23:38;;;;;;;39.97;38.25;;;;;;;24.81;65.93;98797.34;4945085;28;103346;-74
2023/09/02 03:26:11;;;;;;;42.78;40.78;;;;;;;24.85;65.18;98793.22;4963586;28;102901;-74
2023/09/02 03:28:41;;;;;;;48.40;46.35;;;;;;;24.93;65.00;98795.75;4958617;28;102902;-75
2023/09/02 03:31:11;;;;;;;53.50;51.10;;;;;;;24.38;66.58;98802.00;4944717;28;103583;-75
2023/09/02 03:33:41;;;;;;;39.83;38.00;;;;;;;24.27;68.07;98803.38;4956761;28;103842;-74
2023/09/02 03:36:16;;;;;;;41.65;39.85;;;;;;;24.78;66.18;98796.69;4946916;28;102690;-74
2023/09/02 03:38:49;;;;;;;39.40;37.53;;;;;;;23.99;68.35;98805.19;4960654;28;103334;-74
2023/09/02 03:41:18;;;;;;;44.37;42.40;;;;;;;23.36;72.81;98804.06;4957433;28;103251;-74
2023/09/02 03:43:46;;;;;;;45.00;42.97;;;;;;;23.84;71.50;98809.78;4964007;28;103139;-74
2023/09/02 03:46:15;;;;;;;47.20;44.80;;;;;;;23.21;73.75;98805.97;4958577;28;103226;-74
2023/09/02 03:48:46;;;;;;;53.90;51.65;;;;;;;24.14;71.05;98806.78;4946637;28;103849;-75
2023/09/02 03:51:16;;;;;;;40.60;38.70;;;;;;;23.67;71.99;98804.66;4962082;28;104027;-74
2023/09/02 03:53:51;;;;;;;57.88;55.17;;;;;;;23.05;75.40;98803.44;4960831;28;103402;-74
2023/09/02 03:56:19;;;;;;;54.17;51.77;;;;;;;23.45;73.27;98802.13;4927964;28;103849;-74
2023/09/02 03:58:47;;;;;;;51.78;49.38;;;;;;;23.39;73.22;98800.16;4950649;28;102993;-74
2023/09/02 04:01:16;;;;;;;49.58;47.38;;;;;;;23.49;71.85;98806.13;4944848;28;103408;-75
2023/09/02 04:03:45;;;;;;;54.03;51.55;;;;;;;23.39;73.33;98810.94;4947531;28;103513;-74
2023/09/02 04:06:15;;;;;;;39.73;37.83;;;;;;;24.00;70.41;98820.34;4962198;28;104102;-74
2023/09/02 04:08:43;;;;;;;37.92;36.22;;;;;;;24.17;69.06;98819.91;4962357;28;103097;-74
2023/09/02 04:11:12;;;;;;;30.17;28.47;;;;;;;23.85;69.03;98823.09;4963463;28;103192;-75
2023/09/02 04:13:41;;;;;;;36.30;34.57;;;;;;;23.79;69.86;98823.03;4962854;28;103217;-74
2023/09/02 04:16:12;;;;;;;34.00;32.55;;;;;;;24.32;67.80;98819.81;4961037;28;102882;-74
2023/09/02 04:18:40;;;;;;;31.85;30.45;;;;;;;24.37;67.06;98822.78;4961767;28;103821;-74
2023/09/02 04:21:09;;;;;;;27.50;26.20;;;;;;;24.50;65.92;98822.06;4958175;28;105043;-74
2023/09/02 04:23:41;;;;;;;26.30;24.97;;;;;;;24.56;65.54;98822.09;4934439;28;103180;-76
2023/09/02 04:26:14;;;;;;;26.88;25.67;;;;;;;24.61;65.24;98822.34;4959284;28;102980;-84
2023/09/02 04:28:42;;;;;;;40.13;38.30;;;;;;;23.58;66.70;98819.28;4960819;28;103216;-78
2023/09/02 04:31:14;;;;;;;31.98;30.48;;;;;;;22.65;72.63;98834.41;4960901;28;104120;-77
2023/09/02 04:33:42;;;;;;;33.65;31.88;;;;;;;22.58;74.29;98830.72;4960579;28;103712;-78
2023/09/02 04:36:10;;;;;;;35.97;34.28;;;;;;;22.71;73.74;98832.81;4960815;28;103097;-78
2023/09/02 04:38:40;;;;;;;39.72;37.92;;;;;;;23.12;72.08;98839.41;4945848;28;103415;-77
2023/09/02 04:41:09;;;;;;;39.67;37.97;;;;;;;23.57;71.62;98832.97;4943938;28;103202;-80
2023/09/02 04:43:39;;;;;;;31.77;30.38;;;;;;;23.81;69.55;98837.16;4963140;28;103403;-79
2023/09/02 04:46:09;;;;;;;29.65;28.27;;;;;;;23.97;68.33;98836.91;4942519;28;103559;-78
2023/09/02 04:48:41;;;;;;;26.70;25.30;;;;;;;22.62;70.76;98839.28;4963420;28;103124;-78
2023/09/02 04:51:12;;;;;;;33.50;31.92;;;;;;;22.39;74.10;98840.16;4957993;28;105240;-78
2023/09/02 04:53:40;;;;;;;32.72;30.98;;;;;;;21.35;79.27;98842.53;4944909;28;103758;-79
2023/09/02 04:56:08;;;;;;;33.67;32.03;;;;;;;21.62;78.77;98845.75;4944895;28;102965;-78
2023/09/02 04:58:41;;;;;;;34.13;32.33;;;;;;;21.69;79.38;98852.09;4945471;28;103070;-78
2023/09/02 05:01:13;;;;;;;36.22;34.47;;;;;;;22.44;76.16;98843.13;4961286;28;104012;-78
2023/09/02 05:03:53;;;;;;;36.07;34.17;;;;;;;22.17;76.58;98854.47;4948195;28;103229;-77
2023/09/02 05:06:23;;;;;;;40.42;38.53;;;;;;;22.98;74.64;98856.41;4960582;28;102960;-78
2023/09/02 05:08:54;;;;;;;42.63;40.72;;;;;;;23.67;71.84;98852.34;4951505;28;104357;-77
2023/09/02 05:11:24;;;;;;;49.25;47.25;;;;;;;23.94;69.80;98867.81;4944637;28;103598;-77
2023/09/02 05:13:53;;;;;;;36.72;35.22;;;;;;;24.19;68.59;98868.31;4959667;28;102961;-77
2023/09/02 05:16:21;;;;;;;34.55;33.03;;;;;;;24.33;68.31;98864.69;4961548;28;103334;-79
2023/09/02 05:18:49;;;;;;;30.20;28.90;;;;;;;24.41;67.97;98861.03;4962150;28;103931;-76
2023/09/02 05:21:17;;;;;;;20.13;19.15;;;;;;;24.56;67.02;98864.47;4959371;28;103835;-78
2023/09/02 05:23:47;;;;;;;18.60;17.70;;;;;;;24.68;66.34;98858.34;4944858;28;103946;-79
2023/09/02 05:26:14;;;;;;;31.75;30.23;;;;;;;23.25;72.31;98861.13;4962908;28;102909;-78
2023/09/02 05:28:42;;;;;;;28.30;26.92;;;;;;;23.03;74.17;98862.06;4961948;28;103613;-79
2023/09/02 05:31:11;;;;;;;36.33;34.63;;;;;;;23.92;70.85;98860.91;4947661;28;105635;-79
2023/09/02 05:33:39;;;;;;;29.83;28.23;;;;;;;23.60;72.51;98865.78;4960593;28;103112;-82
2023/09/02 05:36:07;;;;;;;44.77;42.57;;;;;;;24.14;70.27;98865.34;4961061;28;103932;-82
2023/09/02 05:38:35;;;;;;;44.08;42.08;;;;;;;24.35;69.74;98868.03;4962490;28;103746;-83
2023/09/02 05:41:05;;;;;;;38.97;37.25;;;;;;;24.90;68.02;98872.63;4962576;28;103464;-81
2023/09/02 05:43:33;;;;;;;33.78;32.33;;;;;;;25.05;66.70;98869.84;4962376;28;103191;-80
2023/09/02 05:46:02;;;;;;;31.52;30.13;;;;;;;25.02;66.63;98873.78;4962413;28;102964;-82
2023/09/02 05:48:32;;;;;;;21.57;20.63;;;;;;;25.18;65.96;98872.63;4963393;28;103088;-82
2023/09/02 05:51:00;;;;;;;15.70;14.90;;;;;;;25.35;65.19;98876.66;4962387;28;103955;-79
2023/09/02 05:53:29;;;;;;;14.68;13.88;;;;;;;25.28;64.98;98870.38;4960424;28;103273;-81
2023/09/02 05:55:57;;;;;;;14.52;13.80;;;;;;;25.37;65.15;98874.59;4967079;28;104044;-83
2023/09/02 05:58:27;;;;;;;10.68;10.07;;;;;;;25.59;64.68;98873.47;4959138;28;104375;-81
2023/09/02 06:00:58;;;;;;;10.18;9.57;;;;;;;25.70;63.77;98858.53;4962710;28;103265;-81
2023/09/02 06:03:26;;;;;;;11.32;10.68;;;;;;;25.80;63.41;98876.03;4941920;28;105012;-81
2023/09/02 06:05:56;;;;;;;13.20;12.50;;;;;;;25.68;64.38;98876.84;4957932;28;103167;-79
2023/09/02 06:08:24;;;;;;;28.80;27.42;;;;;;;25.51;65.31;98873.66;4961838;28;103176;-79
2023/09/02 06:10:59;;;;;;;30.25;28.85;;;;;;;25.64;65.56;98887.22;4961878;28;103402;-80
2023/09/02 06:13:29;;;;;;;20.65;19.65;;;;;;;25.70;64.97;98875.59;4961364;28;103147;-80
2023/09/02 06:16:00;;;;;;;17.10;16.27;;;;;;;25.89;64.50;98874.81;4961256;28;102863;-80
2023/09/02 06:18:28;;;;;;;23.80;22.53;;;;;;;25.55;65.54;98874.91;4951448;28;102949;-79
2023/09/02 06:20:57;;;;;;;17.67;16.63;;;;;;;25.79;64.99;98874.38;4960289;28;103435;-79
2023/09/02 06:23:26;;;;;;;27.98;26.73;;;;;;;25.62;66.06;98883.91;4958661;28;103274;-78
2023/09/02 06:25:57;;;;;;;34.80;33.13;;;;;;;25.44;66.58;98880.84;4960879;28;103105;-79
2023/09/02 06:28:27;;;;;;;33.45;32.05;;;;;;;25.42;66.82;98877.53;4961780;28;103932;-82
2023/09/02 06:30:56;;;;;;;21.30;20.20;;;;;;;25.64;65.50;98875.56;4962386;28;104122;-83
2023/09/02 06:33:25;;;;;;;21.20;20.10;;;;;;;25.51;65.47;98873.66;4966408;28;103240;-82
2023/09/02 06:35:53;;;;;;;16.38;15.57;;;;;;;26.26;64.89;98873.47;4968401;28;102991;-83
2023/09/02 06:38:22;;;;;;;16.27;15.27;;;;;;;26.05;64.38;98876.31;4971877;28;104666;-83
2023/09/02 06:40:50;;;;;;;16.23;15.33;;;;;;;26.16;63.68;98870.31;4972739;28;104207;-83
2023/09/02 06:43:18;;;;;;;18.85;17.85;;;;;;;26.24;63.67;98872.03;4973524;28;104199;-84
2023/09/02 06:45:47;;;;;;;20.17;19.13;;;;;;;26.19;63.38;98871.81;4964678;28;102848;-78
2023/09/02 06:48:15;;;;;;;16.92;15.82;;;;;;;26.48;62.61;98877.66;4968259;28;102956;-79
2023/09/02 06:50:46;;;;;;;17.33;16.30;;;;;;;26.64;62.61;98868.25;4966410;28;102666;-78
2023/09/02 06:53:14;;;;;;;19.90;18.85;;;;;;;26.24;63.00;98883.69;4966500;28;103355;-79
2023/09/02 06:55:46;;;;;;;22.17;21.07;;;;;;;26.23;63.56;98887.44;4968649;28;102935;-82
2023/09/02 06:58:15;;;;;;;21.65;20.45;;;;;;;26.49;63.32;98902.88;4975873;28;103720;-84
2023/09/02 07:00:45;;;;;;;21.17;20.10;;;;;;;26.63;62.63;98892.88;4978091;28;103392;-86
2023/09/02 07:03:18;;;;;;;22.70;21.55;;;;;;;26.64;61.98;98895.34;4977971;28;102915;-79
2023/09/02 07:06:03;;;;;;;27.58;26.17;;;;;;;27.03;60.64;98898.06;4980168;28;102653;-84
2023/09/02 07:08:35;;;;;;;29.58;28.20;;;;;;;27.21;60.12;98892.00;4983679;28;102578;-81
2023/09/02 07:11:05;;;;;;;29.08;27.67;;;;;;;27.04;61.71;98894.31;4974241;28;104360;-74
2023/09/02 07:13:33;;;;;;;32.95;31.35;;;;;;;27.47;59.73;98897.38;4968542;28;103170;-80
2023/09/02 07:16:02;;;;;;;43.60;41.70;;;;;;;28.11;58.26;98894.63;4970777;28;102630;-81
2023/09/02 07:18:30;;;;;;;46.53;44.47;;;;;;;27.96;58.10;98898.63;4963214;28;103786;-79
2023/09/02 07:21:01;;;;;;;51.57;49.37;;;;;;;28.50;57.25;98898.09;4963259;28;104527;-78
2023/09/02 07:23:32;;;;;;;47.22;44.97;;;;;;;28.36;57.48;98897.38;4964664;28;103614;-79
2023/09/02 07:26:01;;;;;;;52.38;50.08;;;;;;;28.54;57.29;98893.91;4966220;28;103032;-78
2023/09/02 07:28:33;;;;;;;62.77;59.97;;;;;;;28.65;56.69;98895.94;4953614;28;103096;-79
2023/09/02 07:31:02;;;;;;;64.97;62.13;;;;;;;29.21;56.49;98901.25;4964709;28;103285;-78
2023/09/02 07:33:30;;;;;;;68.30;65.43;;;;;;;29.80;54.58;98903.38;4962689;28;103438;-80
2023/09/02 07:35:59;;;;;;;66.63;63.72;;;;;;;30.09;53.62;98897.09;4962385;28;102708;-78
2023/09/02 07:38:27;;;;;;;100.13;95.75;;;;;;;29.09;53.59;98908.50;4964329;28;104036;-78
2023/09/02 07:40:55;;;;;;;61.27;58.47;;;;;;;28.00;57.92;98903.41;4962498;28;104585;-79
2023/09/02 07:43:23;;;;;;;71.85;68.78;;;;;;;29.99;54.08;98907.72;4960954;28;103778;-78
2023/09/02 07:45:55;;;;;;;116.43;111.38;;;;;;;30.77;51.74;98907.59;4969739;28;103054;-79
2023/09/02 07:48:23;;;;;;;128.75;123.15;;;;;;;31.30;49.44;98913.81;4966967;28;104386;-77
2023/09/02 07:50:51;;;;;;;122.87;117.67;;;;;;;30.84;50.42;98911.06;4964868;28;103341;-80
2023/09/02 07:53:19;;;;;;;119.18;114.05;;;;;;;30.70;51.47;98918.63;4949688;28;103266;-81
2023/09/02 07:55:47;;;;;;;113.72;109.03;;;;;;;31.13;51.31;98901.94;4965272;28;102757;-79
2023/09/02 07:58:15;;;;;;;140.10;134.20;;;;;;;31.22;50.21;98908.72;4962012;28;103092;-80
2023/09/02 08:00:43;;;;;;;138.73;132.93;;;;;;;31.08;51.45;98917.38;4958812;28;104762;-79
2023/09/02 08:03:12;;;;;;;146.77;140.67;;;;;;;32.10;48.18;98913.94;4963972;28;103101;-77
2023/09/02 08:05:40;;;;;;;140.93;135.13;;;;;;;32.29;47.38;98912.66;4963653;28;103561;-76
2023/09/02 08:08:08;;;;;;;145.95;139.88;;;;;;;32.79;45.39;98914.66;4964147;28;103377;-76
2023/09/02 08:10:36;;;;;;;153.55;147.18;;;;;;;32.60;47.44;98914.88;4966440;28;103922;-75
2023/09/02 08:13:07;;;;;;;126.07;120.97;;;;;;;30.80;50.19;98918.88;4952461;28;103493;-75
2023/09/02 08:15:37;;;;;;;153.05;146.80;;;;;;;33.20;46.34;98914.25;4969886;28;103219;-77
2023/09/02 08:18:05;;;;;;;154.57;148.38;;;;;;;30.58;51.55;98919.66;4941113;28;102914;-76
2023/09/02 08:20:35;;;;;;;147.50;141.57;;;;;;;32.29;48.62;98918.13;4967229;28;104070;-76
2023/09/02 08:23:04;;;;;;;135.03;129.67;;;;;;;32.39;47.94;98912.84;4966218;28;103615;-76
2023/09/02 08:25:32;;;;;;;130.47;125.27;;;;;;;31.79;48.26;98919.81;4968521;28;103228;-76
2023/09/02 08:27:59;;;;;;;150.40;144.50;;;;;;;33.68;45.43;98914.41;4968267;28;104195;-76
2023/09/02 08:30:27;;;;;;;163.93;157.65;;;;;;;33.44;44.92;98921.16;4967723;28;104278;-76
2023/09/02 08:32:55;;;;;;;173.48;166.77;;;;;;;33.89;44.57;98917.38;4966944;28;103636;-75
2023/09/02 08:35:25;;;;;;;133.15;128.02;;;;;;;31.48;48.53;98930.09;4967116;28;102793;-75
2023/09/02 08:37:56;;;;;;;130.40;125.50;;;;;;;33.62;44.63;98917.31;4951465;28;102983;-76
2023/09/02 08:40:24;;;;;;;164.27;157.98;;;;;;;34.95;42.88;98922.88;4969924;28;104376;-80
2023/09/02 08:42:52;;;;;;;207.47;199.73;;;;;;;35.21;42.09;98914.88;4949982;28;103464;-78
2023/09/02 08:45:22;;;;;;;175.32;168.73;;;;;;;34.36;42.56;98907.50;4974601;28;102981;-78
2023/09/02 08:47:59;;;;;;;187.32;180.23;;;;;;;35.16;42.36;98915.66;4969628;28;102799;-77
2023/09/02 08:50:28;;;;;;;165.48;159.38;;;;;;;35.20;42.98;98918.72;4954197;28;103303;-79
2023/09/02 08:52:57;;;;;;;143.02;137.65;;;;;;;35.27;42.62;98919.28;4971063;28;103797;-78
2023/09/02 08:55:27;;;;;;;167.35;161.05;;;;;;;35.86;42.05;98919.91;4964914;28;102900;-81
2023/09/02 08:57:56;;;;;;;128.85;124.05;;;;;;;34.62;43.94;98928.63;4971182;28;104448;-79
2023/09/02 09:00:24;;;;;;;166.77;160.52;;;;;;;35.50;41.00;98924.38;4958156;28;104266;-78
2023/09/02 09:02:53;;;;;;;174.27;167.63;;;;;;;35.68;41.81;98929.44;4971434;28;103457;-79
2023/09/02 09:05:22;;;;;;;189.07;182.07;;;;;;;36.11;40.52;98935.69;4973384;28;102936;-79
2023/09/02 09:07:51;;;;;;;196.47;189.27;;;;;;;36.60;40.18;98925.94;4960417;28;103874;-79
2023/09/02 09:10:21;;;;;;;183.83;177.13;;;;;;;37.04;40.04;98929.81;4969539;28;104438;-79
2023/09/02 09:12:52;;;;;;;128.90;124.07;;;;;;;36.44;41.63;98927.81;4973877;28;103233;-78
2023/09/02 09:15:22;;;;;;;121.40;116.80;;;;;;;37.22;41.31;98930.38;4979592;28;103011;-80
2023/09/02 09:17:50;;;;;;;158.93;153.18;;;;;;;36.66;38.78;98935.88;4963156;28;102683;-79
2023/09/02 09:20:18;;;;;;;180.75;174.15;;;;;;;37.11;38.77;98929.56;4970608;28;102501;-80
2023/09/02 09:22:50;;;;;;;225.43;217.53;;;;;;;37.90;37.15;98932.41;4971588;28;102954;-78
2023/09/02 09:25:20;;;;;;;189.53;182.77;;;;;;;37.92;37.95;98934.91;4972202;28;102610;-78
2023/09/02 09:27:51;;;;;;;179.18;172.57;;;;;;;37.86;37.67;98936.81;4966487;28;102617;-77
2023/09/02 09:30:28;;;;;;;223.93;216.18;;;;;;;38.34;36.63;98931.69;4960448;28;103219;-77
2023/09/02 09:33:00;;;;;;;106.63;102.57;;;;;;;37.01;38.86;98941.41;4969766;28;103413;-77
2023/09/02 09:35:30;;;;;;;186.75;180.13;;;;;;;37.86;37.54;98939.59;4969396;28;102982;-77
2023/09/02 09:37:58;;;;;;;173.73;167.52;;;;;;;38.48;36.36;98938.22;4967989;28;103747;-77
2023/09/02 09:40:32;;;;;;;121.30;116.88;;;;;;;37.96;37.54;98938.72;4969043;28;104008;-77
2023/09/02 09:43:01;;;;;;;160.25;154.45;;;;;;;38.42;36.67;98937.41;4952608;28;103391;-76
2023/09/02 09:45:30;;;;;;;117.75;113.43;;;;;;;37.55;36.97;98929.75;4965317;28;102748;-77
2023/09/02 09:47:59;;;;;;;171.10;165.05;;;;;;;38.61;35.78;98926.50;4968120;28;103397;-77
2023/09/02 09:50:29;;;;;;;177.48;171.23;;;;;;;38.91;35.65;98915.25;4953003;28;104244;-76
2023/09/02 09:53:04;;;;;;;137.45;132.50;;;;;;;38.83;36.11;98918.63;4950814;28;103424;-78
2023/09/02 09:55:34;;;;;;;64.15;61.65;;;;;;;38.00;38.71;98932.38;4960458;28;103813;-78
2023/09/02 09:58:03;;;;;;;76.70;73.63;;;;;;;38.15;37.44;98924.00;4967291;28;102782;-76
2023/09/02 10:00:31;;;;;;;100.53;96.83;;;;;;;37.98;37.18;98925.50;4969118;28;103455;-76
2023/09/02 10:03:00;;;;;;;139.70;134.63;;;;;;;38.23;35.80;98909.63;4969018;28;103759;-78
2023/09/02 10:05:30;;;;;;;100.32;96.55;;;;;;;37.65;36.21;98929.72;4969570;28;102942;-77
2023/09/02 10:07:59;;;;;;;99.07;95.37;;;;;;;37.77;36.89;98927.47;4969962;28;102665;-75
2023/09/02 10:10:29;;;;;;;81.50;78.30;;;;;;;37.03;37.24;98925.41;4968438;28;104100;-78
2023/09/02 10:12:59;;;;;;;168.93;162.93;;;;;;;38.37;35.40;98925.59;4967069;28;103372;-74
2023/09/02 10:15:30;;;;;;;139.93;134.77;;;;;;;37.80;34.97;98928.84;4968875;28;102971;-77
2023/09/02 10:18:03;;;;;;;60.38;57.78;;;;;;;35.89;38.93;98930.38;4967674;28;104340;-78
2023/09/02 10:20:32;;;;;;;70.83;68.07;;;;;;;37.67;38.54;98922.03;4941620;28;107485;-78
2023/09/02 10:23:05;;;;;;;85.83;82.53;;;;;;;37.50;37.25;98927.03;4961594;28;103144;-79
2023/09/02 10:25:41;;;;;;;85.75;82.47;;;;;;;37.90;37.30;98915.88;4957864;28;102869;-78
2023/09/02 10:28:20;;;;;;;58.53;56.17;;;;;;;36.58;38.89;98926.19;4961652;28;103009;-78
2023/09/02 10:30:51;;;;;;;94.35;90.82;;;;;;;38.42;36.72;98925.56;4959611;28;103802;-81
2023/09/02 10:33:31;;;;;;;77.83;74.83;;;;;;;37.70;36.40;98926.97;4962330;28;103097;-78
2023/09/02 10:36:01;;;;;;;62.40;59.90;;;;;;;37.19;37.77;98921.53;4962167;28;102807;-84
2023/09/02 10:38:34;;;;;;;114.85;110.72;;;;;;;37.84;36.29;98921.69;4962132;28;103862;-84
2023/09/02 10:41:08;;;;;;;60.35;57.95;;;;;;;36.14;37.11;98915.91;4953558;28;103749;-82
2023/09/02 10:43:41;;;;;;;60.00;57.53;;;;;;;34.55;40.72;98917.03;4955198;28;103656;-80
2023/09/02 10:46:09;;;;;;;61.67;59.20;;;;;;;37.07;38.64;98912.75;4961666;28;102824;-81
2023/09/02 10:48:40;;;;;;;52.63;50.33;;;;;;;36.72;39.11;98911.91;4957532;28;104079;-78
2023/09/02 10:51:09;;;;;;;108.23;104.23;;;;;;;37.02;37.69;98914.69;4962363;28;103650;-81
2023/09/02 10:53:56;;;;;;;129.38;124.68;;;;;;;37.90;36.09;98915.88;4962015;28;104006;-78
2023/09/02 10:56:25;;;;;;;180.98;174.68;;;;;;;38.95;34.50;98910.81;4962560;28;102877;-80
2023/09/02 10:58:58;;;;;;;217.20;209.70;;;;;;;39.82;33.18;98903.28;4960645;28;104582;-79
2023/09/02 11:01:28;;;;;;;94.85;91.20;;;;;;;34.64;38.87;98915.47;4960401;28;103898;-80
2023/09/02 11:03:56;;;;;;;91.33;87.67;;;;;;;34.37;40.26;98909.16;4966014;28;102981;-81
2023/09/02 11:06:24;;;;;;;131.65;125.70;;;;;;;35.13;37.80;98907.97;4955236;28;103901;-78
2023/09/02 11:08:53;;;;;;;117.47;113.05;;;;;;;36.17;37.52;98904.38;4962694;28;105823;-78
2023/09/02 11:11:21;;;;;;;101.40;97.30;;;;;;;35.78;38.60;98901.19;4979336;28;103931;-80
2023/09/02 11:14:22;;;;;;;87.05;83.57;;;;;;;33.74;40.76;98905.13;4967702;28;102979;-78
2023/09/02 11:17:27;;;;;;;188.88;182.05;;;;;;;36.24;37.20;98896.69;4964821;28;102882;-79